sensor_id;sensor_type;location;lat;lon;timestamp;pressure;altitude;pressure_sealevel;temperature;humidity
18918;BME280;9591;52.742;13.650;2023-03-13T00:00:23;100106.97;;;8.11;100.00
18918;BME280;9591;52.742;13.650;2023-03-13T00:03:10;100106.44;;;8.28;100.00
18918;BME280;9591;52.742;13.650;2023-03-13T00:05:58;100110.81;;;8.29;100.00
18918;BME280;9591;52.742;13.650;2023-03-13T00:08:45;100105.63;;;8.26;100.00
18918;BME280;9591;52.742;13.650;2023-03-13T00:11:32;100116.78;;;8.35;100.00
18918;BME280;9591;52.742;13.650;2023-03-13T00:14:18;100101.41;;;8.48;100.00
18918;BME280;9591;52.742;13.650;2023-03-13T00:17:06;100102.38;;;8.45;100.00
18918;BME280;9591;52.742;13.650;2023-03-13T00:19:53;100073.75;;;8.33;100.00
18918;BME280;9591;52.742;13.650;2023-03-13T00:22:40;100092.41;;;8.53;100.00
18918;BME280;9591;52.742;13.650;2023-03-13T00:25:26;100091.59;;;8.51;100.00
18918;BME280;9591;52.742;13.650;2023-03-13T00:28:13;100087.94;;;8.56;100.00
18918;BME280;9591;52.742;13.650;2023-03-13T00:31:01;100079.13;;;8.57;100.00
18918;BME280;9591;52.742;13.650;2023-03-13T00:33:50;100083.59;;;8.54;100.00
18918;BME280;9591;52.742;13.650;2023-03-13T00:36:38;100082.47;;;8.62;100.00
18918;BME280;9591;52.742;13.650;2023-03-13T00:39:25;100072.41;;;8.46;100.00
18918;BME280;9591;52.742;13.650;2023-03-13T00:42:11;100075.50;;;8.59;100.00
18918;BME280;9591;52.742;13.650;2023-03-13T00:44:58;100070.38;;;8.54;100.00
18918;BME280;9591;52.742;13.650;2023-03-13T00:47:45;100077.06;;;8.65;100.00
18918;BME280;9591;52.742;13.650;2023-03-13T00:50:35;100071.19;;;8.57;100.00
18918;BME280;9591;52.742;13.650;2023-03-13T00:53:22;100062.25;;;8.61;100.00
18918;BME280;9591;52.742;13.650;2023-03-13T00:56:10;100059.28;;;8.70;100.00
18918;BME280;9591;52.742;13.650;2023-03-13T00:58:58;100058.06;;;8.55;100.00
18918;BME280;9591;52.742;13.650;2023-03-13T01:01:45;100049.38;;;8.51;100.00
18918;BME280;9591;52.742;13.650;2023-03-13T01:04:33;100053.47;;;8.60;100.00
18918;BME280;9591;52.742;13.650;2023-03-13T01:07:21;100047.13;;;8.66;100.00
18918;BME280;9591;52.742;13.650;2023-03-13T01:10:09;100052.41;;;8.66;100.00
18918;BME280;9591;52.742;13.650;2023-03-13T01:12:56;100049.41;;;8.75;100.00
18918;BME280;9591;52.742;13.650;2023-03-13T01:15:42;100049.34;;;8.76;100.00
18918;BME280;9591;52.742;13.650;2023-03-13T01:18:29;100026.50;;;8.75;100.00
18918;BME280;9591;52.742;13.650;2023-03-13T01:21:19;100040.47;;;8.79;100.00
18918;BME280;9591;52.742;13.650;2023-03-13T01:24:08;100041.28;;;8.81;100.00
18918;BME280;9591;52.742;13.650;2023-03-13T01:26:55;100040.78;;;8.70;100.00
18918;BME280;9591;52.742;13.650;2023-03-13T01:29:42;100043.44;;;8.70;100.00
18918;BME280;9591;52.742;13.650;2023-03-13T01:32:31;100038.16;;;8.70;100.00
18918;BME280;9591;52.742;13.650;2023-03-13T01:35:20;100043.31;;;8.73;100.00
18918;BME280;9591;52.742;13.650;2023-03-13T01:38:07;100042.63;;;8.68;100.00
18918;BME280;9591;52.742;13.650;2023-03-13T01:40:55;100037.94;;;8.76;100.00
18918;BME280;9591;52.742;13.650;2023-03-13T01:43:43;100011.34;;;8.57;100.00
18918;BME280;9591;52.742;13.650;2023-03-13T01:46:30;100041.22;;;8.82;100.00
18918;BME280;9591;52.742;13.650;2023-03-13T01:49:21;100034.31;;;8.78;100.00
18918;BME280;9591;52.742;13.650;2023-03-13T01:52:20;100021.38;;;8.96;100.00
18918;BME280;9591;52.742;13.650;2023-03-13T01:55:19;100015.50;;;8.87;100.00
18918;BME280;9591;52.742;13.650;2023-03-13T01:58:10;100015.41;;;8.91;100.00
18918;BME280;9591;52.742;13.650;2023-03-13T02:00:57;100012.81;;;8.89;100.00
18918;BME280;9591;52.742;13.650;2023-03-13T02:03:45;100004.38;;;8.79;100.00
18918;BME280;9591;52.742;13.650;2023-03-13T02:06:35;100009.78;;;9.00;100.00
18918;BME280;9591;52.742;13.650;2023-03-13T02:09:25;100009.44;;;9.09;100.00
18918;BME280;9591;52.742;13.650;2023-03-13T02:12:21;100001.69;;;9.04;100.00
18918;BME280;9591;52.742;13.650;2023-03-13T02:15:14;99997.25;;;9.05;100.00
18918;BME280;9591;52.742;13.650;2023-03-13T02:18:02;99996.91;;;9.14;100.00
18918;BME280;9591;52.742;13.650;2023-03-13T02:20:52;99978.59;;;9.09;100.00
18918;BME280;9591;52.742;13.650;2023-03-13T02:23:49;99984.06;;;9.05;100.00
18918;BME280;9591;52.742;13.650;2023-03-13T02:26:40;99982.72;;;8.93;100.00
18918;BME280;9591;52.742;13.650;2023-03-13T02:29:26;99976.53;;;8.94;100.00
18918;BME280;9591;52.742;13.650;2023-03-13T02:32:13;99966.66;;;8.99;100.00
18918;BME280;9591;52.742;13.650;2023-03-13T02:35:03;99963.16;;;8.99;100.00
18918;BME280;9591;52.742;13.650;2023-03-13T02:37:54;99962.75;;;8.86;100.00
18918;BME280;9591;52.742;13.650;2023-03-13T02:40:45;99965.97;;;8.94;100.00
18918;BME280;9591;52.742;13.650;2023-03-13T02:43:35;99964.59;;;9.07;100.00
18918;BME280;9591;52.742;13.650;2023-03-13T02:46:23;99970.03;;;9.03;100.00
18918;BME280;9591;52.742;13.650;2023-03-13T02:49:19;99962.88;;;9.06;100.00
18918;BME280;9591;52.742;13.650;2023-03-13T02:52:12;99958.44;;;9.07;100.00
18918;BME280;9591;52.742;13.650;2023-03-13T02:55:05;99941.91;;;9.02;100.00
18918;BME280;9591;52.742;13.650;2023-03-13T02:57:54;99943.28;;;9.12;100.00
18918;BME280;9591;52.742;13.650;2023-03-13T03:00:42;99937.88;;;9.15;100.00
18918;BME280;9591;52.742;13.650;2023-03-13T03:03:29;99938.19;;;9.07;100.00
18918;BME280;9591;52.742;13.650;2023-03-13T03:06:15;99929.16;;;9.13;100.00
18918;BME280;9591;52.742;13.650;2023-03-13T03:09:03;99934.25;;;9.17;100.00
18918;BME280;9591;52.742;13.650;2023-03-13T03:11:52;99927.69;;;9.28;100.00
18918;BME280;9591;52.742;13.650;2023-03-13T03:14:40;99922.34;;;9.29;100.00
18918;BME280;9591;52.742;13.650;2023-03-13T03:17:28;99921.00;;;9.19;100.00
18918;BME280;9591;52.742;13.650;2023-03-13T03:20:15;99913.69;;;9.26;100.00
18918;BME280;9591;52.742;13.650;2023-03-13T03:23:01;99920.16;;;9.40;100.00
18918;BME280;9591;52.742;13.650;2023-03-13T03:25:49;99919.72;;;9.29;100.00
18918;BME280;9591;52.742;13.650;2023-03-13T03:28:36;99918.59;;;9.35;100.00
18918;BME280;9591;52.742;13.650;2023-03-13T03:31:27;99857.50;;;8.99;100.00
18918;BME280;9591;52.742;13.650;2023-03-13T03:34:17;99914.38;;;9.31;100.00
18918;BME280;9591;52.742;13.650;2023-03-13T03:37:04;99912.09;;;9.43;100.00
18918;BME280;9591;52.742;13.650;2023-03-13T03:39:51;99903.31;;;9.43;100.00
18918;BME280;9591;52.742;13.650;2023-03-13T03:42:38;99900.28;;;9.52;100.00
18918;BME280;9591;52.742;13.650;2023-03-13T03:45:24;99892.97;;;9.37;100.00
18918;BME280;9591;52.742;13.650;2023-03-13T03:48:11;99890.47;;;9.34;100.00
18918;BME280;9591;52.742;13.650;2023-03-13T03:50:59;99890.28;;;9.38;100.00
18918;BME280;9591;52.742;13.650;2023-03-13T03:53:48;99882.28;;;9.40;100.00
18918;BME280;9591;52.742;13.650;2023-03-13T03:56:35;99881.38;;;9.41;100.00
18918;BME280;9591;52.742;13.650;2023-03-13T03:59:22;99875.75;;;9.48;100.00
18918;BME280;9591;52.742;13.650;2023-03-13T04:02:14;99877.25;;;9.34;100.00
18918;BME280;9591;52.742;13.650;2023-03-13T04:05:02;99869.00;;;9.41;100.00
18918;BME280;9591;52.742;13.650;2023-03-13T04:07:53;99864.13;;;9.52;100.00
18918;BME280;9591;52.742;13.650;2023-03-13T04:10:40;99857.19;;;9.50;100.00
18918;BME280;9591;52.742;13.650;2023-03-13T04:13:27;99854.44;;;9.53;100.00
18918;BME280;9591;52.742;13.650;2023-03-13T04:16:15;99849.41;;;9.67;100.00
18918;BME280;9591;52.742;13.650;2023-03-13T04:19:04;99838.88;;;9.66;100.00
18918;BME280;9591;52.742;13.650;2023-03-13T04:21:52;99842.66;;;9.60;100.00
18918;BME280;9591;52.742;13.650;2023-03-13T04:24:40;99831.06;;;9.63;100.00
18918;BME280;9591;52.742;13.650;2023-03-13T04:27:27;99824.81;;;9.65;100.00
18918;BME280;9591;52.742;13.650;2023-03-13T04:30:14;99825.53;;;9.69;100.00
18918;BME280;9591;52.742;13.650;2023-03-13T04:33:24;99822.97;;;9.67;100.00
18918;BME280;9591;52.742;13.650;2023-03-13T04:36:40;99821.38;;;9.63;100.00
18918;BME280;9591;52.742;13.650;2023-03-13T04:40:01;99818.06;;;9.38;100.00
18918;BME280;9591;52.742;13.650;2023-03-13T04:43:11;99810.13;;;9.38;100.00
18918;BME280;9591;52.742;13.650;2023-03-13T04:46:17;99801.75;;;9.48;100.00
18918;BME280;9591;52.742;13.650;2023-03-13T04:49:07;99785.28;;;9.62;100.00
18918;BME280;9591;52.742;13.650;2023-03-13T04:52:25;99791.50;;;9.61;100.00
18918;BME280;9591;52.742;13.650;2023-03-13T04:55:38;99781.44;;;9.69;100.00
18918;BME280;9591;52.742;13.650;2023-03-13T04:58:43;99771.88;;;9.67;100.00
18918;BME280;9591;52.742;13.650;2023-03-13T05:01:44;99772.44;;;9.73;100.00
18918;BME280;9591;52.742;13.650;2023-03-13T05:04:51;99763.06;;;9.66;100.00
18918;BME280;9591;52.742;13.650;2023-03-13T05:07:48;99748.72;;;9.72;100.00
18918;BME280;9591;52.742;13.650;2023-03-13T05:11:08;99754.22;;;9.67;100.00
18918;BME280;9591;52.742;13.650;2023-03-13T05:14:15;99740.72;;;9.73;100.00
18918;BME280;9591;52.742;13.650;2023-03-13T05:17:29;99734.25;;;9.80;100.00
18918;BME280;9591;52.742;13.650;2023-03-13T05:20:35;99728.03;;;9.81;100.00
18918;BME280;9591;52.742;13.650;2023-03-13T05:23:29;99718.91;;;9.68;100.00
18918;BME280;9591;52.742;13.650;2023-03-13T05:26:36;99707.50;;;9.68;100.00
18918;BME280;9591;52.742;13.650;2023-03-13T05:29:51;99716.47;;;9.64;100.00
18918;BME280;9591;52.742;13.650;2023-03-13T05:33:04;99710.84;;;9.71;100.00
18918;BME280;9591;52.742;13.650;2023-03-13T05:36:09;99702.91;;;9.71;100.00
18918;BME280;9591;52.742;13.650;2023-03-13T05:39:03;99699.78;;;9.82;100.00
18918;BME280;9591;52.742;13.650;2023-03-13T05:42:00;99681.22;;;9.83;100.00
18918;BME280;9591;52.742;13.650;2023-03-13T05:45:06;99656.69;;;9.61;100.00
18918;BME280;9591;52.742;13.650;2023-03-13T05:48:13;99678.84;;;9.77;100.00
18918;BME280;9591;52.742;13.650;2023-03-13T05:51:18;99666.94;;;9.88;100.00
18918;BME280;9591;52.742;13.650;2023-03-13T05:54:16;99673.84;;;9.90;100.00
18918;BME280;9591;52.742;13.650;2023-03-13T05:57:23;99672.50;;;9.81;100.00
18918;BME280;9591;52.742;13.650;2023-03-13T06:00:36;99663.69;;;9.81;100.00
18918;BME280;9591;52.742;13.650;2023-03-13T06:03:58;99650.78;;;9.94;100.00
18918;BME280;9591;52.742;13.650;2023-03-13T06:06:47;99651.34;;;10.00;100.00
18918;BME280;9591;52.742;13.650;2023-03-13T06:09:35;99637.84;;;9.88;100.00
18918;BME280;9591;52.742;13.650;2023-03-13T06:12:23;99561.88;;;9.53;100.00
18918;BME280;9591;52.742;13.650;2023-03-13T06:15:10;99632.75;;;10.02;100.00
18918;BME280;9591;52.742;13.650;2023-03-13T06:18:16;99630.75;;;10.07;100.00
18918;BME280;9591;52.742;13.650;2023-03-13T06:21:03;99631.69;;;9.87;100.00
18918;BME280;9591;52.742;13.650;2023-03-13T06:23:50;99624.31;;;9.94;100.00
18918;BME280;9591;52.742;13.650;2023-03-13T06:26:37;99617.88;;;10.18;100.00
18918;BME280;9591;52.742;13.650;2023-03-13T06:29:25;99616.94;;;10.19;100.00
18918;BME280;9591;52.742;13.650;2023-03-13T06:32:12;99613.09;;;10.26;100.00
18918;BME280;9591;52.742;13.650;2023-03-13T06:34:59;99603.47;;;10.25;100.00
18918;BME280;9591;52.742;13.650;2023-03-13T06:37:46;99592.09;;;10.23;100.00
18918;BME280;9591;52.742;13.650;2023-03-13T06:40:32;99591.56;;;10.15;100.00
18918;BME280;9591;52.742;13.650;2023-03-13T06:43:19;99570.00;;;10.05;100.00
18918;BME280;9591;52.742;13.650;2023-03-13T06:46:15;99583.28;;;10.04;100.00
18918;BME280;9591;52.742;13.650;2023-03-13T06:49:02;99564.06;;;10.00;100.00
18918;BME280;9591;52.742;13.650;2023-03-13T06:51:50;99556.31;;;10.14;100.00
18918;BME280;9591;52.742;13.650;2023-03-13T06:54:37;99557.03;;;10.18;100.00
18918;BME280;9591;52.742;13.650;2023-03-13T06:57:24;99548.81;;;10.24;100.00
18918;BME280;9591;52.742;13.650;2023-03-13T07:00:11;99534.50;;;10.28;100.00
18918;BME280;9591;52.742;13.650;2023-03-13T07:02:59;99536.69;;;10.20;100.00
18918;BME280;9591;52.742;13.650;2023-03-13T07:05:46;99533.63;;;10.45;100.00
18918;BME280;9591;52.742;13.650;2023-03-13T07:08:34;99526.69;;;10.60;100.00
18918;BME280;9591;52.742;13.650;2023-03-13T07:11:21;99495.31;;;10.52;100.00
18918;BME280;9591;52.742;13.650;2023-03-13T07:14:08;99513.63;;;10.74;100.00
18918;BME280;9591;52.742;13.650;2023-03-13T07:17:01;99505.81;;;10.71;100.00
18918;BME280;9591;52.742;13.650;2023-03-13T07:19:49;99497.72;;;10.74;100.00
18918;BME280;9591;52.742;13.650;2023-03-13T07:22:36;99493.59;;;10.68;100.00
18918;BME280;9591;52.742;13.650;2023-03-13T07:25:23;99500.44;;;10.72;100.00
18918;BME280;9591;52.742;13.650;2023-03-13T07:28:11;99498.81;;;10.70;100.00
18918;BME280;9591;52.742;13.650;2023-03-13T07:31:05;99498.19;;;10.82;100.00
18918;BME280;9591;52.742;13.650;2023-03-13T07:33:52;99509.41;;;10.70;100.00
18918;BME280;9591;52.742;13.650;2023-03-13T07:36:42;99484.19;;;10.45;100.00
18918;BME280;9591;52.742;13.650;2023-03-13T07:39:28;99515.88;;;10.64;100.00
18918;BME280;9591;52.742;13.650;2023-03-13T07:42:15;99501.53;;;10.68;100.00
18918;BME280;9591;52.742;13.650;2023-03-13T07:45:03;99508.88;;;10.63;100.00
18918;BME280;9591;52.742;13.650;2023-03-13T07:47:50;99492.91;;;10.47;100.00
18918;BME280;9591;52.742;13.650;2023-03-13T07:50:37;99482.78;;;10.73;100.00
18918;BME280;9591;52.742;13.650;2023-03-13T07:53:28;99472.88;;;10.76;100.00
18918;BME280;9591;52.742;13.650;2023-03-13T07:56:16;99464.09;;;10.59;100.00
18918;BME280;9591;52.742;13.650;2023-03-13T07:59:03;99451.16;;;10.70;100.00
18918;BME280;9591;52.742;13.650;2023-03-13T08:01:50;99447.09;;;10.80;100.00
18918;BME280;9591;52.742;13.650;2023-03-13T08:04:36;99436.16;;;10.86;100.00
18918;BME280;9591;52.742;13.650;2023-03-13T08:07:23;99429.59;;;10.93;100.00
18918;BME280;9591;52.742;13.650;2023-03-13T08:10:11;99426.94;;;10.93;100.00
18918;BME280;9591;52.742;13.650;2023-03-13T08:12:58;99432.94;;;10.97;100.00
18918;BME280;9591;52.742;13.650;2023-03-13T08:15:45;99418.81;;;10.80;100.00
18918;BME280;9591;52.742;13.650;2023-03-13T08:18:32;99422.22;;;10.82;100.00
18918;BME280;9591;52.742;13.650;2023-03-13T08:21:22;99412.91;;;10.75;100.00
18918;BME280;9591;52.742;13.650;2023-03-13T08:24:10;99418.69;;;10.66;100.00
18918;BME280;9591;52.742;13.650;2023-03-13T08:26:58;99394.44;;;10.74;100.00
18918;BME280;9591;52.742;13.650;2023-03-13T08:29:45;99323.75;;;10.43;100.00
18918;BME280;9591;52.742;13.650;2023-03-13T08:32:32;99386.28;;;10.94;100.00
18918;BME280;9591;52.742;13.650;2023-03-13T08:35:19;99381.66;;;10.98;100.00
18918;BME280;9591;52.742;13.650;2023-03-13T08:38:06;99382.19;;;11.04;100.00
18918;BME280;9591;52.742;13.650;2023-03-13T08:40:55;99383.91;;;11.05;100.00
18918;BME280;9591;52.742;13.650;2023-03-13T08:43:44;99357.72;;;10.68;100.00
18918;BME280;9591;52.742;13.650;2023-03-13T08:46:33;99364.34;;;11.08;100.00
18918;BME280;9591;52.742;13.650;2023-03-13T08:49:20;99361.44;;;11.12;100.00
18918;BME280;9591;52.742;13.650;2023-03-13T08:52:07;99362.09;;;11.16;100.00
18918;BME280;9591;52.742;13.650;2023-03-13T08:54:53;99357.41;;;11.05;100.00
18918;BME280;9591;52.742;13.650;2023-03-13T08:57:40;99352.63;;;11.12;100.00
18918;BME280;9591;52.742;13.650;2023-03-13T09:00:28;99362.19;;;11.14;100.00
18918;BME280;9591;52.742;13.650;2023-03-13T09:03:15;99360.91;;;11.22;100.00
18918;BME280;9591;52.742;13.650;2023-03-13T09:06:03;99355.19;;;11.13;100.00
18918;BME280;9591;52.742;13.650;2023-03-13T09:08:50;99344.84;;;11.25;100.00
18918;BME280;9591;52.742;13.650;2023-03-13T09:11:37;99343.56;;;11.00;100.00
18918;BME280;9591;52.742;13.650;2023-03-13T09:14:25;99334.75;;;11.15;100.00
18918;BME280;9591;52.742;13.650;2023-03-13T09:17:12;99323.34;;;11.29;100.00
18918;BME280;9591;52.742;13.650;2023-03-13T09:19:59;99318.72;;;11.33;100.00
18918;BME280;9591;52.742;13.650;2023-03-13T09:22:46;99314.00;;;11.38;100.00
18918;BME280;9591;52.742;13.650;2023-03-13T09:25:33;99316.22;;;11.45;100.00
18918;BME280;9591;52.742;13.650;2023-03-13T09:28:20;99317.94;;;11.31;100.00
18918;BME280;9591;52.742;13.650;2023-03-13T09:31:07;99317.00;;;11.47;100.00
18918;BME280;9591;52.742;13.650;2023-03-13T09:33:56;99309.44;;;11.56;100.00
18918;BME280;9591;52.742;13.650;2023-03-13T09:36:42;99316.09;;;11.63;100.00
18918;BME280;9591;52.742;13.650;2023-03-13T09:39:29;99308.72;;;11.38;100.00
18918;BME280;9591;52.742;13.650;2023-03-13T09:42:18;99295.78;;;11.47;100.00
18918;BME280;9591;52.742;13.650;2023-03-13T09:45:08;99324.31;;;11.58;100.00
18918;BME280;9591;52.742;13.650;2023-03-13T09:48:01;99303.97;;;11.59;100.00
18918;BME280;9591;52.742;13.650;2023-03-13T09:50:57;99335.00;;;11.57;100.00
18918;BME280;9591;52.742;13.650;2023-03-13T09:53:51;99299.66;;;11.72;100.00
18918;BME280;9591;52.742;13.650;2023-03-13T09:56:43;99311.25;;;11.85;100.00
18918;BME280;9591;52.742;13.650;2023-03-13T09:59:36;99311.75;;;11.92;100.00
18918;BME280;9591;52.742;13.650;2023-03-13T10:02:30;99296.38;;;11.82;100.00
18918;BME280;9591;52.742;13.650;2023-03-13T10:05:21;99311.88;;;11.74;100.00
18918;BME280;9591;52.742;13.650;2023-03-13T10:08:14;99293.25;;;11.60;100.00
18918;BME280;9591;52.742;13.650;2023-03-13T10:11:03;99280.28;;;11.86;100.00
18918;BME280;9591;52.742;13.650;2023-03-13T10:13:55;99283.41;;;11.78;100.00
18918;BME280;9591;52.742;13.650;2023-03-13T10:16:48;99288.50;;;11.51;100.00
18918;BME280;9591;52.742;13.650;2023-03-13T10:19:41;99287.66;;;11.80;100.00
18918;BME280;9591;52.742;13.650;2023-03-13T10:22:29;99282.84;;;11.87;100.00
18918;BME280;9591;52.742;13.650;2023-03-13T10:25:26;99267.31;;;11.95;100.00
18918;BME280;9591;52.742;13.650;2023-03-13T10:28:15;99282.78;;;12.03;100.00
18918;BME280;9591;52.742;13.650;2023-03-13T10:31:07;99255.00;;;12.08;100.00
18918;BME280;9591;52.742;13.650;2023-03-13T10:34:05;99243.72;;;12.05;100.00
18918;BME280;9591;52.742;13.650;2023-03-13T10:36:57;99289.88;;;12.17;100.00
18918;BME280;9591;52.742;13.650;2023-03-13T10:39:44;99254.13;;;12.36;100.00
18918;BME280;9591;52.742;13.650;2023-03-13T10:42:34;99239.81;;;12.39;100.00
18918;BME280;9591;52.742;13.650;2023-03-13T10:45:23;99248.91;;;12.90;100.00
18918;BME280;9591;52.742;13.650;2023-03-13T10:48:12;99244.84;;;12.85;100.00
18918;BME280;9591;52.742;13.650;2023-03-13T10:50:59;99238.63;;;13.25;100.00
18918;BME280;9591;52.742;13.650;2023-03-13T10:53:47;99240.72;;;13.20;100.00
18918;BME280;9591;52.742;13.650;2023-03-13T10:56:35;99234.19;;;13.11;100.00
18918;BME280;9591;52.742;13.650;2023-03-13T10:59:25;99247.09;;;13.18;100.00
18918;BME280;9591;52.742;13.650;2023-03-13T11:02:20;99246.94;;;13.33;100.00
18918;BME280;9591;52.742;13.650;2023-03-13T11:05:29;99211.28;;;13.75;100.00
18918;BME280;9591;52.742;13.650;2023-03-13T11:08:23;99223.59;;;13.64;100.00
18918;BME280;9591;52.742;13.650;2023-03-13T11:11:16;99233.31;;;13.77;100.00
18918;BME280;9591;52.742;13.650;2023-03-13T11:14:07;99224.34;;;13.91;100.00
18918;BME280;9591;52.742;13.650;2023-03-13T11:17:04;99219.91;;;13.79;100.00
18918;BME280;9591;52.742;13.650;2023-03-13T11:20:05;99215.47;;;14.16;100.00
18918;BME280;9591;52.742;13.650;2023-03-13T11:23:09;99220.59;;;14.45;100.00
18918;BME280;9591;52.742;13.650;2023-03-13T11:26:03;99208.91;;;14.71;100.00
18918;BME280;9591;52.742;13.650;2023-03-13T11:28:54;99199.69;;;14.51;100.00
18918;BME280;9591;52.742;13.650;2023-03-13T11:31:46;99226.50;;;14.61;100.00
18918;BME280;9591;52.742;13.650;2023-03-13T11:34:39;99183.13;;;14.83;100.00
18918;BME280;9591;52.742;13.650;2023-03-13T11:37:32;99166.22;;;14.60;100.00
18918;BME280;9591;52.742;13.650;2023-03-13T11:40:22;99214.16;;;14.60;100.00
18918;BME280;9591;52.742;13.650;2023-03-13T11:43:23;99193.06;;;14.57;100.00
18918;BME280;9591;52.742;13.650;2023-03-13T11:46:20;99192.88;;;14.47;100.00
18918;BME280;9591;52.742;13.650;2023-03-13T11:49:28;99189.47;;;14.45;100.00
18918;BME280;9591;52.742;13.650;2023-03-13T11:52:29;99183.88;;;14.61;100.00
18918;BME280;9591;52.742;13.650;2023-03-13T11:55:28;99185.34;;;14.89;100.00
18918;BME280;9591;52.742;13.650;2023-03-13T11:58:28;99192.84;;;14.60;100.00
18918;BME280;9591;52.742;13.650;2023-03-13T12:01:18;99191.59;;;14.53;100.00
18918;BME280;9591;52.742;13.650;2023-03-13T12:04:12;99194.13;;;14.54;100.00
18918;BME280;9591;52.742;13.650;2023-03-13T12:07:05;99182.78;;;14.87;100.00
18918;BME280;9591;52.742;13.650;2023-03-13T12:09:59;99188.91;;;15.00;100.00
18918;BME280;9591;52.742;13.650;2023-03-13T12:12:50;99187.78;;;15.16;100.00
18918;BME280;9591;52.742;13.650;2023-03-13T12:15:43;99181.75;;;15.25;100.00
18918;BME280;9591;52.742;13.650;2023-03-13T12:18:34;99167.72;;;15.34;100.00
18918;BME280;9591;52.742;13.650;2023-03-13T12:21:27;99168.28;;;15.26;100.00
18918;BME280;9591;52.742;13.650;2023-03-13T12:24:22;99170.88;;;15.39;100.00
18918;BME280;9591;52.742;13.650;2023-03-13T12:27:17;99169.75;;;15.77;100.00
18918;BME280;9591;52.742;13.650;2023-03-13T12:33:04;99164.88;;;15.70;100.00
18918;BME280;9591;52.742;13.650;2023-03-13T12:36:04;99146.69;;;15.76;100.00
18918;BME280;9591;52.742;13.650;2023-03-13T12:38:55;99151.78;;;15.79;100.00
18918;BME280;9591;52.742;13.650;2023-03-13T12:41:47;99152.50;;;15.69;100.00
18918;BME280;9591;52.742;13.650;2023-03-13T12:44:38;99141.97;;;15.90;100.00
18918;BME280;9591;52.742;13.650;2023-03-13T12:47:29;99146.22;;;16.04;100.00
18918;BME280;9591;52.742;13.650;2023-03-13T12:50:25;99145.97;;;16.07;100.00
18918;BME280;9591;52.742;13.650;2023-03-13T12:56:33;99130.78;;;16.30;100.00
18918;BME280;9591;52.742;13.650;2023-03-13T12:59:25;99142.22;;;16.21;100.00
18918;BME280;9591;52.742;13.650;2023-03-13T13:02:18;99140.47;;;16.42;100.00
18918;BME280;9591;52.742;13.650;2023-03-13T13:05:16;99133.59;;;16.71;100.00
18918;BME280;9591;52.742;13.650;2023-03-13T13:08:03;99119.19;;;16.52;100.00
18918;BME280;9591;52.742;13.650;2023-03-13T13:10:50;99125.72;;;16.70;100.00
18918;BME280;9591;52.742;13.650;2023-03-13T13:13:38;99123.50;;;16.32;100.00
18918;BME280;9591;52.742;13.650;2023-03-13T13:16:25;99104.44;;;16.36;100.00
18918;BME280;9591;52.742;13.650;2023-03-13T13:19:45;99105.66;;;16.32;100.00
18918;BME280;9591;52.742;13.650;2023-03-13T13:22:48;99110.91;;;16.55;100.00
18918;BME280;9591;52.742;13.650;2023-03-13T13:25:37;99109.31;;;16.75;100.00
18918;BME280;9591;52.742;13.650;2023-03-13T13:28:34;99105.78;;;16.63;100.00
18918;BME280;9591;52.742;13.650;2023-03-13T13:31:53;99101.28;;;16.75;100.00
18918;BME280;9591;52.742;13.650;2023-03-13T13:35:00;99095.84;;;16.65;100.00
18918;BME280;9591;52.742;13.650;2023-03-13T13:37:47;99095.13;;;16.95;100.00
18918;BME280;9591;52.742;13.650;2023-03-13T13:40:34;99099.91;;;16.80;100.00
18918;BME280;9591;52.742;13.650;2023-03-13T13:43:22;99092.91;;;17.00;100.00
18918;BME280;9591;52.742;13.650;2023-03-13T13:46:20;99098.53;;;17.18;100.00
18918;BME280;9591;52.742;13.650;2023-03-13T13:49:16;99091.53;;;17.06;100.00
18918;BME280;9591;52.742;13.650;2023-03-13T13:52:29;99096.31;;;17.23;100.00
18918;BME280;9591;52.742;13.650;2023-03-13T13:55:34;99084.09;;;17.30;100.00
18918;BME280;9591;52.742;13.650;2023-03-13T13:58:28;99087.97;;;17.16;100.00
18918;BME280;9591;52.742;13.650;2023-03-13T14:01:17;99079.91;;;17.37;100.00
18918;BME280;9591;52.742;13.650;2023-03-13T14:04:11;99085.09;;;17.59;100.00
18918;BME280;9591;52.742;13.650;2023-03-13T14:07:04;99088.88;;;17.57;100.00
18918;BME280;9591;52.742;13.650;2023-03-13T14:10:02;99073.50;;;17.49;100.00
18918;BME280;9591;52.742;13.650;2023-03-13T14:12:57;99078.63;;;17.62;99.48
18918;BME280;9591;52.742;13.650;2023-03-13T14:15:46;99080.31;;;17.63;100.00
18918;BME280;9591;52.742;13.650;2023-03-13T14:18:41;99078.34;;;17.65;99.63
18918;BME280;9591;52.742;13.650;2023-03-13T14:21:29;99079.03;;;17.57;100.00
18918;BME280;9591;52.742;13.650;2023-03-13T14:24:19;99073.88;;;17.65;100.00
18918;BME280;9591;52.742;13.650;2023-03-13T14:27:18;99071.97;;;17.77;100.00
18918;BME280;9591;52.742;13.650;2023-03-13T14:30:09;99075.22;;;17.60;100.00
18918;BME280;9591;52.742;13.650;2023-03-13T14:33:00;99069.41;;;17.76;100.00
18918;BME280;9591;52.742;13.650;2023-03-13T14:35:58;99072.50;;;17.71;100.00
18918;BME280;9591;52.742;13.650;2023-03-13T14:38:59;99065.72;;;17.67;100.00
18918;BME280;9591;52.742;13.650;2023-03-13T14:42:05;99062.41;;;17.84;100.00
18918;BME280;9591;52.742;13.650;2023-03-13T14:44:56;99060.44;;;17.86;100.00
18918;BME280;9591;52.742;13.650;2023-03-13T14:47:45;99063.88;;;17.98;100.00
18918;BME280;9591;52.742;13.650;2023-03-13T14:50:35;99044.34;;;17.77;100.00
18918;BME280;9591;52.742;13.650;2023-03-13T14:53:23;99056.22;;;17.84;100.00
18918;BME280;9591;52.742;13.650;2023-03-13T14:56:13;99047.91;;;17.87;99.87
18918;BME280;9591;52.742;13.650;2023-03-13T14:59:17;99052.00;;;17.91;98.75
18918;BME280;9591;52.742;13.650;2023-03-13T15:02:27;99047.81;;;17.98;98.86
18918;BME280;9591;52.742;13.650;2023-03-13T15:05:34;99034.88;;;17.73;100.00
18918;BME280;9591;52.742;13.650;2023-03-13T15:08:37;99034.25;;;17.59;99.41